createdAt,value
2019-04-14T00:02:29.639Z,33.23
2019-04-14T00:07:49.440Z,39.50
2019-04-14T00:10:59.426Z,40.47
2019-04-14T00:13:30.576Z,41.47
2019-04-14T00:16:19.019Z,38.90
2019-04-14T00:18:49.100Z,32.20
2019-04-14T00:21:19.385Z,37.20
2019-04-14T00:23:50.101Z,35.67
2019-04-14T00:26:40.192Z,41.83
2019-04-14T00:29:10.918Z,40.30
2019-04-14T00:32:20.536Z,36.23
2019-04-14T00:35:10.335Z,39.77
2019-04-14T00:38:17.821Z,35.23
2019-04-14T00:41:07.196Z,35.87
2019-04-14T00:43:55.402Z,38.10
2019-04-14T00:46:43.265Z,38.80
2019-04-14T00:49:12.016Z,32.67
2019-04-14T00:51:41.371Z,36.10
2019-04-14T00:54:11.100Z,33.37
2019-04-14T00:56:39.737Z,35.80
2019-04-14T00:59:09.247Z,42.43
2019-04-14T01:01:39.470Z,37.63
2019-04-14T01:04:09.809Z,36.17
2019-04-14T01:06:40.450Z,43.37
2019-04-14T01:12:21.133Z,40.10
2019-04-14T01:14:51.675Z,41.43
2019-04-14T01:17:41.681Z,43.23
2019-04-14T01:20:12.388Z,43.23
2019-04-14T01:22:42.425Z,45.53
2019-04-14T01:25:12.847Z,40.33
2019-04-14T01:27:43.012Z,39.33
2019-04-14T01:30:13.343Z,36.50
2019-04-14T01:32:43.648Z,39.20
2019-04-14T01:35:14.493Z,34.53
2019-04-14T01:37:44.107Z,42.63
2019-04-14T01:40:14.328Z,47.90
2019-04-14T01:42:44.175Z,40.87
2019-04-14T01:45:35.905Z,37.90
2019-04-14T01:48:45.478Z,42.67
2019-04-14T01:51:33.323Z,35.27
2019-04-14T01:54:21.760Z,39.10
2019-04-14T01:57:10.947Z,39.70
2019-04-14T01:59:41.276Z,36.23
2019-04-14T02:05:19.801Z,31.87
2019-04-14T02:07:49.418Z,41.13
2019-04-14T02:10:39.208Z,40.73
2019-04-14T02:13:28.932Z,40.77
2019-04-14T02:16:11.093Z,44.13
2019-04-14T02:18:29.640Z,37.87
2019-04-14T02:21:19.501Z,45.90
2019-04-14T02:23:49.800Z,40.23
2019-04-14T02:26:20.006Z,39.83
2019-04-14T02:28:50.333Z,43.23
2019-04-14T02:31:39.307Z,43.90
2019-04-14T02:36:48.319Z,33.43
2019-04-14T02:39:24.105Z,43.17
2019-04-14T02:42:02.507Z,42.97
2019-04-14T02:44:24.035Z,43.07
2019-04-14T02:46:59.660Z,46.27
2019-04-14T02:49:18.490Z,41.13
2019-04-14T02:51:54.141Z,42.83
2019-04-14T02:54:23.132Z,42.83
2019-04-14T02:56:52.797Z,41.83
2019-04-14T02:59:19.722Z,39.93
2019-04-14T03:02:11.955Z,47.57
2019-04-14T03:04:19.528Z,43.03
2019-04-14T03:07:16.554Z,46.70
2019-04-14T03:09:41.787Z,42.30
2019-04-14T03:12:22.380Z,42.30
2019-04-14T03:14:47.704Z,40.10
2019-04-14T03:22:55.772Z,40.23
2019-04-14T03:25:44.200Z,44.80
2019-04-14T03:41:30.088Z,45.23
2019-04-14T03:44:09.806Z,39.37
2019-04-14T03:49:29.445Z,44.40
2019-04-14T03:51:59.703Z,46.90
2019-04-14T03:54:15.598Z,41.63
2019-04-14T03:56:49.621Z,41.57
2019-04-14T04:02:14.089Z,49.03
2019-04-14T04:04:43.071Z,48.90
2019-04-14T04:07:12.489Z,47.50
2019-04-14T04:12:31.421Z,41.83
2019-04-14T04:15:19.976Z,47.40
2019-04-14T04:20:45.525Z,41.40
2019-04-14T04:23:33.933Z,43.13
2019-04-14T04:26:23.269Z,51.27
2019-04-14T04:29:11.308Z,38.87
2019-04-14T04:31:59.477Z,39.97
2019-04-14T04:34:47.270Z,47.17
2019-04-14T04:43:01.323Z,46.80
2019-04-14T04:45:49.864Z,48.40
2019-04-14T04:48:19.639Z,44.43
2019-04-14T04:51:09.369Z,45.73
2019-04-14T04:56:47.249Z,48.87
2019-04-14T04:59:17.185Z,41.60
2019-04-14T05:01:45.928Z,42.17
2019-04-14T05:04:17.657Z,45.60
2019-04-14T05:10:13.838Z,44.30
2019-04-14T05:18:02.789Z,39.13
2019-04-14T05:20:33.442Z,43.17
2019-04-14T05:23:03.739Z,48.27
2019-04-14T05:25:34.140Z,40.10
2019-04-14T05:28:24.535Z,43.23
2019-04-14T05:30:54.763Z,40.40
2019-04-14T05:33:25.746Z,44.27
2019-04-14T05:35:55.271Z,37.27
2019-04-14T05:38:26.171Z,45.27
2019-04-14T05:40:56.197Z,35.97
2019-04-14T05:43:36.940Z,39.77
2019-04-14T05:45:56.657Z,44.17
2019-04-14T05:48:27.318Z,46.90
2019-04-14T05:50:57.740Z,40.20
2019-04-14T05:53:48.051Z,43.47
2019-04-14T05:56:18.744Z,36.77
2019-04-14T05:58:47.777Z,39.90
2019-04-14T06:01:18.170Z,42.70
2019-04-14T06:03:47.808Z,45.90
2019-04-14T06:06:16.908Z,42.50
2019-04-14T06:08:45.521Z,38.53
2019-04-14T06:11:14.298Z,38.53
2019-04-14T06:13:42.977Z,37.00
2019-04-14T06:16:11.629Z,38.27
2019-04-14T06:18:40.245Z,39.30
2019-04-14T06:21:08.858Z,34.33
2019-04-14T06:23:37.591Z,34.10
2019-04-14T06:26:06.473Z,41.77
2019-04-14T06:28:35.099Z,38.50
2019-04-14T06:41:59.036Z,37.93
2019-04-14T06:44:27.669Z,36.13
2019-04-14T06:46:56.354Z,33.07
2019-04-14T06:49:25.065Z,28.50
2019-04-14T06:51:53.854Z,30.80
2019-04-14T06:54:22.571Z,27.80
2019-04-14T06:56:51.497Z,31.07
2019-04-14T07:02:15.188Z,33.97
2019-04-14T07:04:43.871Z,28.17
2019-04-14T07:10:00.081Z,25.50
2019-04-14T07:12:28.588Z,26.97
2019-04-14T07:14:57.167Z,27.30
2019-04-14T07:17:25.871Z,23.37
2019-04-14T07:20:01.993Z,20.90
2019-04-14T07:22:24.986Z,22.93
2019-04-14T07:24:53.796Z,28.33
2019-04-14T07:27:22.418Z,26.87
2019-04-14T07:30:10.184Z,26.97
2019-04-14T07:32:58.411Z,24.47
2019-04-14T07:36:05.549Z,28.20
2019-04-14T07:44:03.972Z,24.97
2019-04-14T07:46:51.871Z,23.93
2019-04-14T07:49:39.616Z,26.33
2019-04-14T07:52:27.378Z,25.60
2019-04-14T07:55:15.195Z,25.13
2019-04-14T07:58:02.981Z,29.43
2019-04-14T08:03:26.873Z,22.03
2019-04-14T08:05:56.102Z,24.27
2019-04-14T08:08:24.829Z,25.43
2019-04-14T08:10:53.468Z,29.93
2019-04-14T08:13:22.548Z,28.13
2019-04-14T08:16:10.746Z,24.73
2019-04-14T08:18:39.892Z,24.73
2019-04-14T08:21:09.350Z,26.93
2019-04-14T08:23:38.607Z,26.47
2019-04-14T08:26:26.957Z,27.00
2019-04-14T08:28:55.663Z,21.33
2019-04-14T08:31:24.482Z,27.73
2019-04-14T08:33:53.172Z,27.33
2019-04-14T08:36:21.839Z,25.50
2019-04-14T08:38:50.515Z,32.50
2019-04-14T08:41:19.234Z,28.50
2019-04-14T08:44:07.038Z,28.13
2019-04-14T08:46:54.849Z,28.10
2019-04-14T08:49:43.171Z,28.43
2019-04-14T08:52:30.986Z,25.23
2019-04-14T08:55:19.313Z,28.00
2019-04-14T08:58:07.087Z,27.17
2019-04-14T09:00:54.986Z,30.80
2019-04-14T09:06:22.211Z,20.60
2019-04-14T09:11:59.171Z,30.53
2019-04-14T09:14:27.871Z,25.60
2019-04-14T09:16:56.518Z,24.83
2019-04-14T09:19:25.220Z,22.50
2019-04-14T09:21:53.857Z,24.80
2019-04-14T09:24:22.483Z,26.63
2019-04-14T09:26:51.072Z,27.00
2019-04-14T09:29:19.724Z,24.73
2019-04-14T09:31:48.413Z,27.47
2019-04-14T09:34:17.071Z,21.83
2019-04-14T09:36:45.741Z,25.80
2019-04-14T09:39:14.437Z,22.70
2019-04-14T09:41:43.090Z,25.20
2019-04-14T09:44:11.770Z,21.37
2019-04-14T09:46:40.436Z,22.07
2019-04-14T09:49:09.143Z,22.73
2019-04-14T09:51:37.797Z,23.60
2019-04-14T09:54:06.586Z,20.27
2019-04-14T09:56:35.312Z,22.97
2019-04-14T09:59:04.086Z,24.57
2019-04-14T10:01:32.737Z,27.60
2019-04-14T10:04:01.497Z,23.00
2019-04-14T10:06:30.150Z,19.47
2019-04-14T10:08:58.921Z,26.87
2019-04-14T10:11:27.600Z,27.50
2019-04-14T10:13:56.288Z,24.87
2019-04-14T10:16:24.907Z,21.03
2019-04-14T10:18:53.497Z,21.73
2019-04-14T10:21:22.166Z,23.83
2019-04-14T10:23:50.720Z,23.90
2019-04-14T10:26:19.336Z,23.87
2019-04-14T10:28:50.668Z,25.57
2019-04-14T10:31:18.387Z,20.77
2019-04-14T10:33:47.091Z,22.90
2019-04-14T10:36:15.789Z,21.80
2019-04-14T10:38:44.488Z,21.77
2019-04-14T10:41:13.163Z,18.07
2019-04-14T10:43:41.900Z,17.47
2019-04-14T10:46:10.610Z,23.77
2019-04-14T10:48:39.292Z,20.03
2019-04-14T10:51:07.958Z,23.30
2019-04-14T10:53:36.674Z,24.33
2019-04-14T10:56:05.328Z,23.20
2019-04-14T10:58:53.288Z,20.70
2019-04-14T11:01:21.979Z,20.60
2019-04-14T11:03:50.567Z,18.33
2019-04-14T11:06:38.499Z,21.67
2019-04-14T11:09:46.941Z,23.40
2019-04-14T11:12:15.758Z,23.93
2019-04-14T11:14:44.417Z,19.10
2019-04-14T11:17:13.181Z,22.70
2019-04-14T11:19:41.803Z,20.90
2019-04-14T11:22:10.500Z,26.63
2019-04-14T11:24:39.150Z,28.20
2019-04-14T11:27:07.889Z,19.80
2019-04-14T11:29:36.508Z,21.90
2019-04-14T11:37:49.323Z,26.20
2019-04-14T11:43:07.235Z,21.87
2019-04-14T11:45:35.821Z,23.17
2019-04-14T11:48:04.626Z,20.10
2019-04-14T11:50:33.253Z,21.37
2019-04-14T11:53:01.760Z,18.87
2019-04-14T11:55:30.472Z,21.40
2019-04-14T11:57:59.118Z,24.70
2019-04-14T12:00:46.881Z,21.77
2019-04-14T12:03:34.698Z,19.97
2019-04-14T12:06:22.484Z,19.87
2019-04-14T12:09:29.570Z,20.53
2019-04-14T12:11:58.448Z,18.53
2019-04-14T12:14:27.068Z,21.87
2019-04-14T12:16:55.796Z,20.33
2019-04-14T12:19:24.497Z,23.30
2019-04-14T12:21:53.187Z,15.60
2019-04-14T12:24:21.836Z,20.33
2019-04-14T12:26:50.534Z,22.30
2019-04-14T12:29:19.250Z,19.43
2019-04-14T12:35:02.252Z,16.53
2019-04-14T12:37:30.894Z,12.60
2019-04-14T12:39:59.602Z,17.00
2019-04-14T12:43:06.691Z,17.10
2019-04-14T12:53:58.961Z,19.13
2019-04-14T13:04:27.666Z,18.53
2019-04-14T13:06:56.322Z,16.80
2019-04-14T13:09:25.009Z,16.70
2019-04-14T13:11:53.598Z,11.13
2019-04-14T13:14:22.287Z,17.77
2019-04-14T13:16:50.950Z,14.07
2019-04-14T13:19:19.634Z,13.80
2019-04-14T13:21:48.333Z,20.80
2019-04-14T13:24:17.023Z,16.67
2019-04-14T13:26:45.712Z,15.23
2019-04-14T13:29:14.405Z,16.43
2019-04-14T13:31:43.068Z,18.07
2019-04-14T13:34:11.763Z,14.40
2019-04-14T13:36:40.503Z,22.37
2019-04-14T13:39:09.125Z,13.30
2019-04-14T13:41:37.779Z,16.20
2019-04-14T13:44:06.476Z,14.17
2019-04-14T13:46:35.192Z,18.13
2019-04-14T13:49:03.764Z,14.33
2019-04-14T13:51:32.417Z,14.57
2019-04-14T13:54:01.053Z,17.27
2019-04-14T13:56:29.574Z,19.23
2019-04-14T13:58:58.218Z,15.13
2019-04-14T14:01:26.925Z,15.70
2019-04-14T14:03:55.436Z,15.67
2019-04-14T14:06:24.115Z,15.43
2019-04-14T14:08:52.772Z,13.10
2019-04-14T14:11:40.560Z,12.23
2019-04-14T14:14:28.350Z,12.67
2019-04-14T14:25:02.506Z,13.03
2019-04-14T14:27:31.173Z,13.77
2019-04-14T14:29:59.859Z,13.33
2019-04-14T14:32:47.639Z,12.30
2019-04-14T14:35:16.400Z,13.87
2019-04-14T14:37:45.090Z,14.70
2019-04-14T14:40:13.886Z,17.20
2019-04-14T14:42:42.586Z,14.47
2019-04-14T14:48:38.525Z,10.47
2019-04-14T14:51:26.299Z,13.17
2019-04-14T14:53:55.062Z,10.47
2019-04-14T14:56:23.726Z,16.07
2019-04-14T14:58:52.452Z,12.57
2019-04-14T15:01:40.652Z,15.30
2019-04-14T15:04:09.422Z,13.07
2019-04-14T15:06:38.192Z,13.70
2019-04-14T15:09:46.621Z,12.33
2019-04-14T15:12:15.270Z,13.80
2019-04-14T15:14:43.964Z,12.07
2019-04-14T15:17:12.706Z,14.47
2019-04-14T15:19:41.318Z,13.07
2019-04-14T15:22:10.016Z,15.77
2019-04-14T15:24:38.815Z,13.57
2019-04-14T15:27:07.536Z,17.13
2019-04-14T15:29:55.655Z,14.07
2019-04-14T15:32:24.356Z,15.07
2019-04-14T15:34:53.076Z,13.43
2019-04-14T15:37:21.718Z,15.97
2019-04-14T15:39:50.471Z,11.60
2019-04-14T15:42:19.004Z,8.37
2019-04-14T15:44:47.833Z,14.97
2019-04-14T15:47:16.524Z,15.17
2019-04-14T15:49:45.278Z,13.80
2019-04-14T15:52:34.530Z,11.30
2019-04-14T15:55:03.541Z,14.17
2019-04-14T15:57:51.596Z,12.63
2019-04-14T16:00:39.859Z,21.60
2019-04-14T16:03:27.679Z,13.20
2019-04-14T16:06:15.699Z,13.67
2019-04-14T16:11:52.724Z,9.80
2019-04-14T16:14:59.772Z,14.83
2019-04-14T16:17:47.585Z,12.40
2019-04-14T16:23:05.482Z,13.07
2019-04-14T16:26:12.588Z,14.30
2019-04-14T16:29:02.643Z,14.07
2019-04-14T16:31:49.974Z,10.87
2019-04-14T16:37:07.897Z,14.00
2019-04-14T16:39:36.569Z,14.73
2019-04-14T16:42:05.261Z,14.50
2019-04-14T16:44:33.920Z,18.00
2019-04-14T16:47:02.608Z,12.47
2019-04-14T16:49:31.265Z,14.13
2019-04-14T16:52:19.075Z,13.83
2019-04-14T16:57:56.093Z,13.67
2019-04-14T17:03:04.284Z,15.97
2019-04-14T17:05:32.871Z,16.77
2019-04-14T17:08:01.504Z,15.07
2019-04-14T17:10:30.182Z,11.80
2019-04-14T17:13:18.441Z,12.93
2019-04-14T17:16:06.210Z,14.60
2019-04-14T17:18:53.967Z,14.57
2019-04-14T17:21:41.739Z,16.17
2019-04-14T17:30:00.255Z,12.07
2019-04-14T17:32:48.062Z,15.60
2019-04-14T17:40:50.644Z,16.73
2019-04-14T17:43:38.449Z,11.43
2019-04-14T17:46:26.220Z,13.43
2019-04-14T17:49:14.033Z,16.00
2019-04-14T17:52:01.808Z,9.50
2019-04-14T17:54:49.538Z,16.67
2019-04-14T17:57:37.741Z,13.77
2019-04-14T18:00:46.658Z,14.33
2019-04-14T18:03:34.501Z,14.03
2019-04-14T18:06:22.320Z,11.20
2019-04-14T18:09:10.097Z,15.27
2019-04-14T18:11:57.909Z,14.43
2019-04-14T18:17:34.931Z,11.37
2019-04-14T18:23:11.688Z,11.87
2019-04-14T18:25:40.272Z,13.10
2019-04-14T18:28:28.085Z,13.47
2019-04-14T18:31:16.350Z,14.93
2019-04-14T18:34:04.197Z,12.33
2019-04-14T18:39:49.901Z,13.57
2019-04-14T18:45:48.202Z,13.60
2019-04-14T18:48:35.960Z,13.00
2019-04-14T18:51:23.742Z,12.67
2019-04-14T18:56:51.112Z,15.57
2019-04-14T18:59:39.024Z,17.07
2019-04-14T19:04:56.839Z,13.13
2019-04-14T19:07:25.542Z,17.33
2019-04-14T19:09:54.060Z,10.20
2019-04-14T19:15:36.762Z,15.53
2019-04-14T19:18:43.880Z,13.30
2019-04-14T19:21:31.598Z,12.53
2019-04-14T19:24:00.317Z,11.10
2019-04-14T19:26:28.968Z,12.93
2019-04-14T19:28:57.663Z,14.43
2019-04-14T19:31:26.326Z,20.37
2019-04-14T19:34:02.052Z,14.60
2019-04-14T19:36:49.905Z,20.23
2019-04-14T19:39:18.607Z,17.10
2019-04-14T19:41:47.270Z,14.30
2019-04-14T19:44:15.944Z,10.00
2019-04-14T19:47:24.507Z,8.77
2019-04-14T19:49:53.245Z,14.00
2019-04-14T19:52:21.902Z,14.73
2019-04-14T19:54:50.487Z,12.37
2019-04-14T19:57:19.201Z,9.77
2019-04-14T19:59:47.916Z,8.97
2019-04-14T20:02:16.708Z,10.17
2019-04-14T20:04:45.738Z,10.10
2019-04-14T20:07:14.539Z,8.17
2019-04-14T20:09:43.180Z,11.83
2019-04-14T20:14:51.671Z,9.40
2019-04-14T20:17:39.437Z,12.37
2019-04-14T20:20:27.270Z,9.30
2019-04-14T20:28:39.809Z,8.10
2019-04-14T20:31:27.506Z,9.00
2019-04-14T20:33:56.133Z,9.60
2019-04-14T20:36:24.755Z,11.40
2019-04-14T20:38:53.462Z,12.53
2019-04-14T20:41:22.027Z,9.63
2019-04-14T20:43:50.917Z,9.10
2019-04-14T20:46:19.650Z,11.43
2019-04-14T20:48:48.334Z,10.10
2019-04-14T20:51:17.046Z,8.47
2019-04-14T20:53:45.685Z,9.77
2019-04-14T20:59:09.221Z,10.10
2019-04-14T21:07:23.240Z,9.00
2019-04-14T21:13:00.256Z,9.33
2019-04-14T21:18:37.227Z,8.33
2019-04-14T21:24:33.563Z,8.77
2019-04-14T21:27:21.365Z,11.10
2019-04-14T21:35:25.910Z,10.67
2019-04-14T21:41:22.153Z,8.17
2019-04-14T21:43:50.701Z,11.95
2019-04-14T21:46:19.382Z,8.70
2019-04-14T21:49:07.296Z,7.87
2019-04-14T21:51:55.034Z,9.17
2019-04-14T21:54:23.746Z,5.47
2019-04-14T22:02:27.715Z,7.73
2019-04-14T22:05:34.750Z,7.60
2019-04-14T22:08:25.131Z,8.60
2019-04-14T22:13:32.521Z,12.07
2019-04-14T22:16:01.272Z,11.90
2019-04-14T22:21:24.658Z,11.03
2019-04-14T22:24:01.383Z,9.23
2019-04-14T22:26:26.348Z,12.40
2019-04-14T22:28:54.147Z,9.13
2019-04-14T22:31:22.962Z,11.97
2019-04-14T22:33:51.762Z,9.30
2019-04-14T22:36:20.428Z,9.27
2019-04-14T22:38:48.942Z,11.53
2019-04-14T22:41:17.633Z,13.30
2019-04-14T22:43:46.314Z,10.50
2019-04-14T22:46:15.001Z,12.17
2019-04-14T22:48:43.702Z,9.40
2019-04-14T22:51:12.304Z,11.33
2019-04-14T22:53:41.039Z,10.37
2019-04-14T22:56:09.690Z,9.60
2019-04-14T22:58:38.439Z,12.23
2019-04-14T23:01:46.916Z,9.50
2019-04-14T23:15:04.827Z,10.63
2019-04-14T23:17:52.703Z,10.10
2019-04-14T23:20:40.516Z,11.97
2019-04-14T23:23:28.330Z,10.03
2019-04-14T23:25:57.137Z,13.67
2019-04-14T23:28:25.821Z,11.13
2019-04-14T23:30:54.474Z,10.43
2019-04-14T23:33:23.383Z,13.47
2019-04-14T23:36:11.699Z,12.60
2019-04-14T23:38:41.176Z,12.50
2019-04-14T23:41:10.337Z,9.97
2019-04-14T23:43:39.496Z,12.57
2019-04-14T23:46:08.124Z,11.23
2019-04-14T23:48:56.302Z,11.13
2019-04-14T23:51:25.417Z,12.73
2019-04-14T23:53:54.451Z,9.80
2019-04-14T23:56:23.812Z,16.83
2019-04-14T23:58:52.643Z,11.63
